createdAt,value
2017-09-02T00:00:28.384Z,14.40
2017-09-02T00:02:55.462Z,14.30
2017-09-02T00:05:22.553Z,14.30
2017-09-02T00:07:49.626Z,14.30
2017-09-02T00:10:16.721Z,14.40
2017-09-02T00:12:43.784Z,14.20
2017-09-02T00:15:10.872Z,14.20
2017-09-02T00:17:38.704Z,14.10
2017-09-02T00:20:05.805Z,14.00
2017-09-02T00:22:32.885Z,14.10
2017-09-02T00:24:59.958Z,14.20
2017-09-02T00:27:27.062Z,14.20
2017-09-02T00:29:54.140Z,14.20
2017-09-02T00:32:21.229Z,14.20
2017-09-02T00:34:49.065Z,14.00
2017-09-02T00:37:16.160Z,14.00
2017-09-02T00:39:43.227Z,13.90
2017-09-02T00:42:10.317Z,13.90
2017-09-02T00:44:37.389Z,13.90
2017-09-02T00:47:05.257Z,13.90
2017-09-02T00:49:33.093Z,13.90
2017-09-02T00:52:00.185Z,13.80
2017-09-02T00:54:27.255Z,13.90
2017-09-02T00:56:54.344Z,13.80
2017-09-02T00:59:21.417Z,13.80
2017-09-02T01:01:48.504Z,13.90
2017-09-02T01:04:15.570Z,14.00
2017-09-02T01:06:42.664Z,13.90
2017-09-02T01:09:10.497Z,13.90
2017-09-02T01:11:37.569Z,13.90
2017-09-02T01:14:04.657Z,13.80
2017-09-02T01:16:31.728Z,13.90
2017-09-02T01:18:58.827Z,13.90
2017-09-02T01:21:26.661Z,13.90
2017-09-02T01:23:53.754Z,13.90
2017-09-02T01:26:20.825Z,13.90
2017-09-02T01:28:47.917Z,13.90
2017-09-02T01:31:14.981Z,13.80
2017-09-02T01:33:42.073Z,13.70
2017-09-02T01:36:09.153Z,13.80
2017-09-02T01:38:36.245Z,13.90
2017-09-02T01:41:04.077Z,13.90
2017-09-02T01:43:31.169Z,13.80
2017-09-02T01:45:58.232Z,13.80
2017-09-02T01:48:25.321Z,13.70
2017-09-02T01:50:52.389Z,13.60
2017-09-02T01:53:20.250Z,13.70
2017-09-02T01:55:48.086Z,13.70
2017-09-02T01:58:15.178Z,13.70
2017-09-02T02:00:42.254Z,13.80
2017-09-02T02:03:09.322Z,13.70
2017-09-02T02:05:36.424Z,13.80
2017-09-02T02:08:04.257Z,13.70
2017-09-02T02:10:31.350Z,13.70
2017-09-02T02:12:58.417Z,13.50
2017-09-02T02:15:25.513Z,13.40
2017-09-02T02:17:52.581Z,13.40
2017-09-02T02:20:19.677Z,13.30
2017-09-02T02:22:46.750Z,13.30
2017-09-02T02:25:13.845Z,13.30
2017-09-02T02:27:40.916Z,13.30
2017-09-02T02:30:08.009Z,13.40
2017-09-02T02:32:35.195Z,13.40
2017-09-02T02:35:02.290Z,13.50
2017-09-02T02:37:29.378Z,13.40
2017-09-02T02:39:57.244Z,13.50
2017-09-02T02:42:24.319Z,13.50
2017-09-02T02:44:51.409Z,13.50
2017-09-02T02:47:18.479Z,13.50
2017-09-02T02:49:46.341Z,13.50
2017-09-02T02:52:13.405Z,13.50
2017-09-02T02:54:41.238Z,13.50
2017-09-02T02:57:08.352Z,13.50
2017-09-02T02:59:35.417Z,13.60
2017-09-02T03:02:02.509Z,13.50
2017-09-02T03:04:29.577Z,13.50
2017-09-02T03:06:56.674Z,13.50
2017-09-02T03:09:23.745Z,13.50
2017-09-02T03:11:50.843Z,13.50
2017-09-02T03:14:17.908Z,13.60
2017-09-02T03:16:45.001Z,13.60
2017-09-02T03:19:12.064Z,13.70
2017-09-02T03:21:39.153Z,13.70
2017-09-02T03:24:06.217Z,13.70
2017-09-02T03:26:33.309Z,13.60
2017-09-02T03:29:00.373Z,13.50
2017-09-02T03:31:27.461Z,13.60
2017-09-02T03:33:54.532Z,13.70
2017-09-02T03:36:21.621Z,13.70
2017-09-02T03:38:48.685Z,13.60
2017-09-02T03:41:15.772Z,13.60
2017-09-02T03:43:42.841Z,13.60
2017-09-02T03:46:10.672Z,13.70
2017-09-02T03:48:37.761Z,13.70
2017-09-02T03:51:04.823Z,13.60
2017-09-02T03:53:31.909Z,13.60
2017-09-02T03:55:58.972Z,13.70
2017-09-02T03:58:26.060Z,13.60
2017-09-02T04:00:53.892Z,13.70
2017-09-02T04:03:21.914Z,13.70
2017-09-02T04:05:48.985Z,13.70
2017-09-02T04:08:16.076Z,13.50
2017-09-02T04:10:43.909Z,13.50
2017-09-02T04:13:10.997Z,13.50
2017-09-02T04:15:38.057Z,13.50
2017-09-02T04:18:05.913Z,13.40
2017-09-02T04:20:33.745Z,13.60
2017-09-02T04:23:00.841Z,13.50
2017-09-02T04:25:27.909Z,13.50
2017-09-02T04:27:55.001Z,13.50
2017-09-02T04:30:22.073Z,13.40
2017-09-02T04:32:49.165Z,13.50
2017-09-02T04:35:16.228Z,13.40
2017-09-02T04:37:43.293Z,13.50
2017-09-02T04:40:10.381Z,13.50
2017-09-02T04:42:37.446Z,13.70
2017-09-02T04:45:04.553Z,13.70
2017-09-02T04:47:31.617Z,13.50
2017-09-02T04:49:58.712Z,13.40
2017-09-02T04:52:25.782Z,13.40
2017-09-02T04:54:52.848Z,13.30
2017-09-02T04:57:19.939Z,13.40
2017-09-02T04:59:47.008Z,13.40
2017-09-02T05:02:14.109Z,13.50
2017-09-02T05:04:41.994Z,13.40
2017-09-02T05:07:09.060Z,13.40
2017-09-02T05:09:36.205Z,13.40
2017-09-02T05:12:03.602Z,13.40
2017-09-02T05:14:31.490Z,13.50
2017-09-02T05:16:58.576Z,13.40
2017-09-02T05:19:25.640Z,13.40
2017-09-02T05:21:52.741Z,13.40
2017-09-02T05:24:19.805Z,13.40
2017-09-02T05:26:46.897Z,13.40
2017-09-02T05:29:13.961Z,13.50
2017-09-02T05:31:41.028Z,13.60
2017-09-02T05:34:08.117Z,13.70
2017-09-02T05:36:35.188Z,13.50
2017-09-02T05:39:02.261Z,13.50
2017-09-02T05:41:29.776Z,13.70
2017-09-02T05:43:57.364Z,13.70
2017-09-02T05:46:25.774Z,13.80
2017-09-02T05:48:53.377Z,13.90
2017-09-02T05:51:21.140Z,13.90
2017-09-02T05:53:48.237Z,13.90
2017-09-02T05:56:15.325Z,13.90
2017-09-02T05:58:42.390Z,14.00
2017-09-02T06:01:09.501Z,14.00
2017-09-02T06:03:36.580Z,14.00
2017-09-02T06:06:03.641Z,14.00
2017-09-02T06:08:30.783Z,14.20
2017-09-02T06:10:57.977Z,14.20
2017-09-02T06:13:25.073Z,14.30
2017-09-02T06:15:52.852Z,14.20
2017-09-02T06:18:20.200Z,14.40
2017-09-02T06:20:47.658Z,14.40
2017-09-02T06:23:15.320Z,14.50
2017-09-02T06:25:42.465Z,14.50
2017-09-02T06:28:09.945Z,14.40
2017-09-02T06:30:37.087Z,14.30
2017-09-02T06:33:04.216Z,14.40
2017-09-02T06:35:31.585Z,14.50
2017-09-02T06:37:58.688Z,14.50
2017-09-02T06:40:26.083Z,14.40
2017-09-02T06:42:54.775Z,14.50
2017-09-02T06:45:21.977Z,14.50
2017-09-02T06:47:49.065Z,14.40
2017-09-02T06:50:16.226Z,14.30
2017-09-02T06:52:43.586Z,14.30
2017-09-02T06:55:10.853Z,14.50
2017-09-02T06:57:38.689Z,14.50
2017-09-02T07:00:05.919Z,14.40
2017-09-02T07:02:33.009Z,14.50
2017-09-02T07:05:00.072Z,14.30
2017-09-02T07:07:27.166Z,14.40
2017-09-02T07:09:54.247Z,14.40
2017-09-02T07:12:21.309Z,14.50
2017-09-02T07:14:48.408Z,14.50
2017-09-02T07:17:15.482Z,14.40
2017-09-02T07:19:42.577Z,14.50
2017-09-02T07:22:09.649Z,14.50
2017-09-02T07:24:36.716Z,14.40
2017-09-02T07:27:03.813Z,14.40
2017-09-02T07:29:30.897Z,14.40
2017-09-02T07:31:58.728Z,14.60
2017-09-02T07:34:48.073Z,14.60
2017-09-02T07:37:15.136Z,14.50
2017-09-02T07:39:42.197Z,14.50
2017-09-02T07:42:09.289Z,14.50
2017-09-02T07:44:36.353Z,14.50
2017-09-02T07:47:03.415Z,14.50
2017-09-02T07:49:30.500Z,14.40
2017-09-02T07:51:57.561Z,14.40
2017-09-02T07:54:24.671Z,14.50
2017-09-02T07:56:51.741Z,14.50
2017-09-02T07:59:18.805Z,14.40
2017-09-02T08:01:45.892Z,14.50
2017-09-02T08:04:12.952Z,14.50
2017-09-02T08:06:40.040Z,14.50
2017-09-02T08:09:07.104Z,14.50
2017-09-02T08:11:34.172Z,14.50
2017-09-02T08:14:02.029Z,14.60
2017-09-02T08:16:29.861Z,14.60
2017-09-02T08:18:56.925Z,14.60
2017-09-02T08:21:24.023Z,14.50
2017-09-02T08:23:51.080Z,14.50
2017-09-02T08:26:18.173Z,14.60
2017-09-02T08:28:45.237Z,14.50
2017-09-02T08:31:12.304Z,14.40
2017-09-02T08:33:39.392Z,14.30
2017-09-02T08:36:07.229Z,14.70
2017-09-02T08:38:34.302Z,14.60
2017-09-02T08:41:01.396Z,14.70
2017-09-02T08:43:28.465Z,14.50
2017-09-02T08:45:55.529Z,14.50
2017-09-02T08:48:22.623Z,14.50
2017-09-02T08:50:49.693Z,14.50
2017-09-02T08:53:16.752Z,14.50
2017-09-02T08:55:43.836Z,14.40
2017-09-02T08:58:10.906Z,14.50
2017-09-02T09:00:37.965Z,14.40
2017-09-02T09:03:05.052Z,14.50
2017-09-02T09:05:32.117Z,14.40
2017-09-02T09:07:59.189Z,14.30
2017-09-02T09:10:26.281Z,14.30
2017-09-02T09:12:54.104Z,14.20
2017-09-02T09:15:21.173Z,14.20
2017-09-02T09:17:48.265Z,14.30
2017-09-02T09:20:15.325Z,14.10
2017-09-02T09:22:42.389Z,14.00
2017-09-02T09:25:09.488Z,13.90
2017-09-02T09:27:37.317Z,13.90
2017-09-02T09:30:04.382Z,13.80
2017-09-02T09:32:31.477Z,13.90
2017-09-02T09:34:58.545Z,14.00
2017-09-02T09:37:25.609Z,14.10
2017-09-02T09:39:52.692Z,14.10
2017-09-02T09:42:19.753Z,14.10
2017-09-02T09:44:46.845Z,14.20
2017-09-02T09:47:13.908Z,14.20
2017-09-02T09:49:41.027Z,14.30
2017-09-02T09:52:08.121Z,14.30
2017-09-02T09:54:35.189Z,14.40
2017-09-02T09:57:02.253Z,14.50
2017-09-02T09:59:29.341Z,14.50
2017-09-02T10:01:56.404Z,14.50
2017-09-02T10:04:23.492Z,14.50
2017-09-02T10:06:50.556Z,14.50
2017-09-02T10:09:17.620Z,14.50
2017-09-02T10:11:44.712Z,14.60
2017-09-02T10:14:11.777Z,14.80
2017-09-02T10:16:39.609Z,14.80
2017-09-02T10:19:06.709Z,14.80
2017-09-02T10:21:33.773Z,14.80
2017-09-02T10:24:00.845Z,14.80
2017-09-02T10:26:27.932Z,15.10
2017-09-02T10:28:54.997Z,15.20
2017-09-02T10:31:22.862Z,15.40
2017-09-02T10:33:49.936Z,15.40
2017-09-02T10:36:17.769Z,15.70
2017-09-02T10:38:44.853Z,15.70
2017-09-02T10:41:11.920Z,15.90
2017-09-02T10:43:39.008Z,15.90
2017-09-02T10:46:06.073Z,15.90
2017-09-02T10:48:33.138Z,16.10
2017-09-02T10:51:00.228Z,16.20
2017-09-02T10:53:27.293Z,16.00
2017-09-02T10:55:54.380Z,16.10
2017-09-02T10:58:21.444Z,16.20
2017-09-02T11:00:48.500Z,16.10
2017-09-02T11:03:15.584Z,16.10
2017-09-02T11:05:42.649Z,16.30
2017-09-02T11:08:10.488Z,16.30
2017-09-02T11:10:37.577Z,16.30
2017-09-02T11:13:04.641Z,16.30
2017-09-02T11:15:31.708Z,16.70
2017-09-02T11:17:58.808Z,16.80
2017-09-02T11:20:26.636Z,16.80
2017-09-02T11:22:53.701Z,16.80
2017-09-02T11:25:20.793Z,16.80
2017-09-02T11:27:47.857Z,16.70
2017-09-02T11:30:14.945Z,16.80
2017-09-02T11:32:42.017Z,17.00
2017-09-02T11:35:09.080Z,17.00
2017-09-02T11:37:36.172Z,16.80
2017-09-02T11:40:03.237Z,16.90
2017-09-02T11:42:30.334Z,16.90
2017-09-02T11:44:57.402Z,17.30
2017-09-02T11:47:24.468Z,17.50
2017-09-02T11:49:51.561Z,17.60
2017-09-02T11:52:18.625Z,17.50
2017-09-02T11:54:45.713Z,17.60
2017-09-02T11:57:12.797Z,17.60
2017-09-02T11:59:40.633Z,17.40
2017-09-02T12:02:07.725Z,17.40
2017-09-02T12:04:35.560Z,17.50
2017-09-02T12:07:02.628Z,17.50
2017-09-02T12:09:29.716Z,17.70
2017-09-02T12:11:56.777Z,17.70
2017-09-02T12:14:23.840Z,17.60
2017-09-02T12:16:50.928Z,17.70
2017-09-02T12:19:17.993Z,17.80
2017-09-02T12:21:45.821Z,17.70
2017-09-02T12:24:12.913Z,17.60
2017-09-02T12:26:39.976Z,18.00
2017-09-02T12:29:07.050Z,18.10
2017-09-02T12:31:34.140Z,18.60
2017-09-02T12:34:01.205Z,18.90
2017-09-02T12:36:28.271Z,19.00
2017-09-02T12:38:55.360Z,18.70
2017-09-02T12:41:22.432Z,18.70
2017-09-02T12:43:49.500Z,18.60
2017-09-02T12:46:16.588Z,18.50
2017-09-02T12:48:43.649Z,18.30
2017-09-02T12:51:10.721Z,18.30
2017-09-02T12:53:37.824Z,18.10
2017-09-02T12:56:04.888Z,17.80
2017-09-02T12:58:31.976Z,17.40
2017-09-02T13:00:59.040Z,17.50
2017-09-02T13:03:26.101Z,17.70
2017-09-02T13:05:53.192Z,17.70
2017-09-02T13:08:20.260Z,17.70
2017-09-02T13:10:48.093Z,18.80
2017-09-02T13:13:15.180Z,18.70
2017-09-02T13:15:43.021Z,19.40
2017-09-02T13:18:10.089Z,19.40
2017-09-02T13:20:37.941Z,19.10
2017-09-02T13:23:05.006Z,19.10
2017-09-02T13:25:32.097Z,19.10
2017-09-02T13:27:59.165Z,19.10
2017-09-02T13:30:26.909Z,19.60
2017-09-02T13:32:54.008Z,19.40
2017-09-02T13:35:21.072Z,19.30
2017-09-02T13:37:48.174Z,19.20
2017-09-02T13:40:15.237Z,19.10
2017-09-02T13:42:42.302Z,19.20
2017-09-02T13:45:10.153Z,19.20
2017-09-02T13:47:37.224Z,19.20
2017-09-02T13:50:04.301Z,18.90
2017-09-02T13:52:31.388Z,18.80
2017-09-02T13:54:58.453Z,19.20
2017-09-02T13:57:25.543Z,19.50
2017-09-02T13:59:52.608Z,19.20
2017-09-02T14:02:19.677Z,18.60
2017-09-02T14:04:46.765Z,18.80
2017-09-02T14:07:13.841Z,19.10
2017-09-02T14:09:41.702Z,18.90
2017-09-02T14:12:08.780Z,18.90
2017-09-02T14:14:35.844Z,19.70
2017-09-02T14:17:02.933Z,19.90
2017-09-02T14:19:30.001Z,19.90
2017-09-02T14:21:57.120Z,20.20
2017-09-02T14:24:24.205Z,20.40
2017-09-02T14:26:51.277Z,20.20
2017-09-02T14:29:18.349Z,19.30
2017-09-02T14:31:45.438Z,18.90
2017-09-02T14:34:12.500Z,19.20
2017-09-02T14:36:39.569Z,19.50
2017-09-02T14:39:06.655Z,19.50
2017-09-02T14:41:33.725Z,19.30
2017-09-02T14:44:00.816Z,19.60
2017-09-02T14:46:27.882Z,19.80
2017-09-02T14:48:54.944Z,19.70
2017-09-02T14:51:22.028Z,19.70
2017-09-02T14:53:49.096Z,19.80
2017-09-02T14:56:16.188Z,19.60
2017-09-02T14:58:43.249Z,19.50
2017-09-02T15:01:11.081Z,19.30
2017-09-02T15:03:38.169Z,19.30
2017-09-02T15:06:05.241Z,18.80
2017-09-02T15:08:32.304Z,19.40
2017-09-02T15:10:59.398Z,19.90
2017-09-02T15:13:26.472Z,20.00
2017-09-02T15:15:53.573Z,19.70
2017-09-02T15:18:20.646Z,19.50
2017-09-02T15:20:47.715Z,20.80
2017-09-02T15:23:14.801Z,23.50
2017-09-02T15:25:41.869Z,24.90
2017-09-02T15:28:08.964Z,25.60
2017-09-02T15:30:36.033Z,26.40
2017-09-02T15:33:03.101Z,26.70
2017-09-02T15:35:30.189Z,25.60
2017-09-02T15:37:58.021Z,21.50
2017-09-02T15:40:25.367Z,21.40
2017-09-02T15:42:52.429Z,20.90
2017-09-02T15:45:19.504Z,20.80
2017-09-02T15:47:47.356Z,19.80
2017-09-02T15:50:14.420Z,19.80
2017-09-02T15:52:42.249Z,19.50
2017-09-02T15:55:09.342Z,19.50
2017-09-02T15:57:36.416Z,19.40
2017-09-02T16:00:03.510Z,19.30
2017-09-02T16:02:30.581Z,19.10
2017-09-02T16:04:57.681Z,19.00
2017-09-02T16:07:24.768Z,18.70
2017-09-02T16:09:52.600Z,18.20
2017-09-02T16:12:19.688Z,18.20
2017-09-02T16:14:46.764Z,18.10
2017-09-02T16:17:13.828Z,18.10
2017-09-02T16:19:40.917Z,18.10
2017-09-02T16:22:07.980Z,18.00
2017-09-02T16:24:35.813Z,17.60
2017-09-02T16:27:02.908Z,17.60
2017-09-02T16:29:29.975Z,17.70
2017-09-02T16:31:57.041Z,17.60
2017-09-02T16:34:24.136Z,17.60
2017-09-02T16:36:51.973Z,17.60
2017-09-02T16:39:19.050Z,17.60
2017-09-02T16:41:46.153Z,17.50
2017-09-02T16:44:13.212Z,17.30
2017-09-02T16:46:40.287Z,17.50
2017-09-02T16:49:07.377Z,17.50
2017-09-02T16:51:34.444Z,17.60
2017-09-02T16:54:01.536Z,17.50
2017-09-02T16:56:28.601Z,17.50
2017-09-02T16:58:55.669Z,17.50
2017-09-02T17:01:22.757Z,17.40
2017-09-02T17:03:49.821Z,17.50
2017-09-02T17:06:16.885Z,17.40
2017-09-02T17:08:44.741Z,17.30
2017-09-02T17:11:11.804Z,17.20
2017-09-02T17:13:39.673Z,17.30
2017-09-02T17:16:07.504Z,17.40
2017-09-02T17:18:34.568Z,17.30
2017-09-02T17:21:01.657Z,17.30
2017-09-02T17:23:28.724Z,17.30
2017-09-02T17:25:55.813Z,17.20
2017-09-02T17:28:22.877Z,17.20
2017-09-02T17:30:50.713Z,17.00
2017-09-02T17:33:17.800Z,17.00
2017-09-02T17:35:45.632Z,16.80
2017-09-02T17:38:12.721Z,16.70
2017-09-02T17:40:39.791Z,16.50
2017-09-02T17:43:06.852Z,16.50
2017-09-02T17:45:33.940Z,16.60
2017-09-02T17:48:01.000Z,16.60
2017-09-02T17:50:28.863Z,16.50
2017-09-02T17:52:56.701Z,16.50
2017-09-02T17:55:23.789Z,16.50
2017-09-02T17:57:51.620Z,16.50
2017-09-02T18:00:18.706Z,16.50
2017-09-02T18:02:45.797Z,16.50
2017-09-02T18:05:12.861Z,16.50
2017-09-02T18:07:39.924Z,16.40
2017-09-02T18:10:07.012Z,16.30
2017-09-02T18:12:34.076Z,16.30
2017-09-02T18:15:01.140Z,16.30
2017-09-02T18:17:28.236Z,16.20
2017-09-02T18:19:55.300Z,16.10
2017-09-02T18:22:22.369Z,16.10
2017-09-02T18:24:49.461Z,16.10
2017-09-02T18:27:16.528Z,16.20
2017-09-02T18:29:44.384Z,16.10
2017-09-02T18:32:11.449Z,16.10
2017-09-02T18:34:38.508Z,16.10
2017-09-02T18:37:05.601Z,16.10
2017-09-02T18:39:32.665Z,16.10
2017-09-02T18:41:59.758Z,16.00
2017-09-02T18:44:26.852Z,15.90
2017-09-02T18:46:53.917Z,15.90
2017-09-02T18:49:21.012Z,15.90
2017-09-02T18:51:48.077Z,15.90
2017-09-02T18:54:15.141Z,15.90
2017-09-02T18:56:42.233Z,15.80
2017-09-02T18:59:09.301Z,15.80
2017-09-02T19:01:36.365Z,15.70
2017-09-02T19:04:03.456Z,15.70
2017-09-02T19:06:30.521Z,15.60
2017-09-02T19:08:57.585Z,15.60
2017-09-02T19:11:25.440Z,15.40
2017-09-02T19:13:52.501Z,15.30
2017-09-02T19:16:19.560Z,15.50
2017-09-02T19:18:46.658Z,15.50
2017-09-02T19:21:13.724Z,15.40
2017-09-02T19:23:40.792Z,15.50
2017-09-02T19:26:08.648Z,15.50
2017-09-02T19:28:35.708Z,15.50
2017-09-02T19:31:02.886Z,15.50
2017-09-02T19:33:29.977Z,15.50
2017-09-02T19:35:57.045Z,15.50
2017-09-02T19:38:24.141Z,15.40
2017-09-02T19:40:51.200Z,15.40
2017-09-02T19:43:18.260Z,15.20
2017-09-02T19:45:45.350Z,15.10
2017-09-02T19:48:13.183Z,15.10
2017-09-02T19:50:40.253Z,15.10
2017-09-02T19:53:07.345Z,15.10
2017-09-02T19:55:34.417Z,15.10
2017-09-02T19:58:01.493Z,15.20
2017-09-02T20:00:28.588Z,15.40
2017-09-02T20:02:55.651Z,15.30
2017-09-02T20:05:22.717Z,15.40
2017-09-02T20:07:49.806Z,15.20
2017-09-02T20:10:17.633Z,15.20
2017-09-02T20:12:44.696Z,15.20
2017-09-02T20:15:11.781Z,15.20
2017-09-02T20:17:38.845Z,15.20
2017-09-02T20:20:05.937Z,15.10
2017-09-02T20:22:33.010Z,15.20
2017-09-02T20:25:00.843Z,15.10
2017-09-02T20:27:27.932Z,15.00
2017-09-02T20:29:54.996Z,15.00
2017-09-02T20:32:22.088Z,14.90
2017-09-02T20:34:49.157Z,14.80
2017-09-02T20:37:16.221Z,14.80
2017-09-02T20:39:43.309Z,14.70
2017-09-02T20:42:10.372Z,14.60
2017-09-02T20:44:37.440Z,14.50
2017-09-02T20:47:04.529Z,14.50
2017-09-02T20:49:31.593Z,14.50
2017-09-02T20:51:58.692Z,14.50
2017-09-02T20:54:25.757Z,14.50
2017-09-02T20:56:52.841Z,14.40
2017-09-02T20:59:19.906Z,14.30
2017-09-02T21:01:47.000Z,14.30
2017-09-02T21:04:14.064Z,14.20
2017-09-02T21:06:41.133Z,14.20
2017-09-02T21:09:08.216Z,14.10
2017-09-02T21:11:35.276Z,14.10
2017-09-02T21:14:02.365Z,14.10
2017-09-02T21:16:29.429Z,14.00
2017-09-02T21:18:56.516Z,13.90
2017-09-02T21:21:23.576Z,13.90
2017-09-02T21:23:50.672Z,13.80
2017-09-02T21:26:17.741Z,13.70
2017-09-02T21:28:44.829Z,13.60
2017-09-02T21:31:11.900Z,13.60
2017-09-02T21:33:38.985Z,13.60
2017-09-02T21:36:06.050Z,13.40
2017-09-02T21:38:33.149Z,13.20
2017-09-02T21:41:00.220Z,13.20
2017-09-02T21:43:27.322Z,13.20
2017-09-02T21:45:54.380Z,13.20
2017-09-02T21:48:21.466Z,13.30
2017-09-02T21:50:48.538Z,13.20
2017-09-02T21:53:15.628Z,13.20
2017-09-02T21:55:42.698Z,13.20
2017-09-02T21:58:09.785Z,13.30
2017-09-02T22:00:36.857Z,13.30
2017-09-02T22:03:04.709Z,13.20
2017-09-02T22:05:31.781Z,13.20
2017-09-02T22:07:58.865Z,13.10
2017-09-02T22:10:26.397Z,13.30
2017-09-02T22:12:54.249Z,13.10
2017-09-02T22:15:21.316Z,13.10
2017-09-02T22:17:48.405Z,13.10
2017-09-02T22:20:15.472Z,13.00
2017-09-02T22:22:42.564Z,13.00
2017-09-02T22:25:09.633Z,13.10
2017-09-02T22:27:36.716Z,12.80
2017-09-02T22:30:03.777Z,12.80
2017-09-02T22:32:30.863Z,12.90
2017-09-02T22:34:57.924Z,12.90
2017-09-02T22:37:25.013Z,12.90
2017-09-02T22:39:52.077Z,12.90
2017-09-02T22:42:19.169Z,12.80
2017-09-02T22:44:46.228Z,12.80
2017-09-02T22:47:13.321Z,12.80
2017-09-02T22:49:40.389Z,12.70
2017-09-02T22:52:08.245Z,12.80
2017-09-02T22:54:35.305Z,12.80
2017-09-02T22:57:02.397Z,12.80
2017-09-02T22:59:29.457Z,12.60
2017-09-02T23:01:57.321Z,12.80
2017-09-02T23:04:24.385Z,12.70
2017-09-02T23:06:51.481Z,12.70
2017-09-02T23:09:18.545Z,12.60
2017-09-02T23:11:45.637Z,12.50
2017-09-02T23:14:12.704Z,12.50
2017-09-02T23:16:40.565Z,12.40
2017-09-02T23:19:07.628Z,12.40
2017-09-02T23:21:34.716Z,12.30
2017-09-02T23:24:01.813Z,12.20
2017-09-02T23:26:28.900Z,12.20
2017-09-02T23:28:55.965Z,12.30
2017-09-02T23:31:23.060Z,12.30
2017-09-02T23:33:50.891Z,12.00
2017-09-02T23:36:17.980Z,12.00
2017-09-02T23:38:45.808Z,11.80
2017-09-02T23:41:12.897Z,11.80
2017-09-02T23:43:40.728Z,11.90
2017-09-02T23:46:07.821Z,11.80
2017-09-02T23:48:34.889Z,11.80
2017-09-02T23:51:01.977Z,11.70
2017-09-02T23:53:29.044Z,11.80
2017-09-02T23:55:56.132Z,11.90
2017-09-02T23:58:23.197Z,11.90
